Time;durP1;ratioP1;P1;durP2;ratioP2;P2;SDS_P1;SDS_P2;PMS_P1;PMS_P2;Temp;Humidity;BMP_temperature;BMP_pressure;BME280_temperature;BME280_humidity;BME280_pressure;Samples;Min_cycle;Max_cycle;Signal;HPM_P1;HPM_P2
2021/07/24 00:00:21;;;;;;;16.17;9.18;;;537.80;2406.40;;;;;;5033686;28;20041;-59
2021/07/24 00:02:47;;;;;;;11.60;8.63;;;537.80;2406.40;;;;;;5033461;28;20471;-58
2021/07/24 00:05:13;;;;;;;15.48;8.98;;;537.90;2406.40;;;;;;5033321;28;20041;-58
2021/07/24 00:07:38;;;;;;;13.70;8.63;;;537.80;2406.40;;;;;;5033465;28;20017;-58
2021/07/24 00:10:05;;;;;;;12.23;9.07;;;537.80;2406.40;;;;;;5033323;28;20061;-58
2021/07/24 00:12:34;;;;;;;10.45;8.40;;;537.70;2406.40;;;;;;5033016;28;20056;-58
2021/07/24 00:15:00;;;;;;;13.00;8.40;;;537.80;2406.40;;;;;;5033269;28;20025;-58
2021/07/24 00:17:25;;;;;;;15.93;9.20;;;537.80;2406.40;;;;;;5033261;28;20550;-57
2021/07/24 00:19:51;;;;;;;11.80;8.60;;;537.80;2406.40;;;;;;5033290;28;20044;-57
2021/07/24 00:22:17;;;;;;;10.60;8.52;;;537.80;2406.40;;;;;;5034401;28;20021;-58
2021/07/24 00:24:43;;;;;;;11.63;8.80;;;537.80;2406.40;;;;;;5037297;28;20029;-57
2021/07/24 00:27:09;;;;;;;13.52;8.85;;;537.80;2406.40;;;;;;5037276;28;20049;-57
2021/07/24 00:29:35;;;;;;;15.52;9.05;;;537.70;2406.40;;;;;;5037224;28;20060;-58
2021/07/24 00:32:02;;;;;;;16.35;10.63;;;537.70;2406.40;;;;;;5046735;28;20383;-58
2021/07/24 00:34:28;;;;;;;13.68;9.63;;;537.60;2406.40;;;;;;5045476;28;20017;-58
2021/07/24 00:36:55;;;;;;;12.32;9.45;;;512.90;2380.80;;;;;;5045195;28;20035;-57
2021/07/24 00:39:21;;;;;;;13.27;10.00;;;512.80;2380.80;;;;;;5048289;28;20467;-58
2021/07/24 00:41:52;;;;;;;13.68;9.75;;;512.80;2380.80;;;;;;5045778;28;20123;-58
2021/07/24 00:44:22;;;;;;;13.60;10.25;;;512.70;2380.80;;;;;;5045914;28;20009;-57
2021/07/24 00:46:49;;;;;;;15.65;11.25;;;512.50;2380.80;;;;;;5045576;28;20036;-58
2021/07/24 00:49:16;;;;;;;15.02;10.60;;;512.40;2380.80;;;;;;5046168;28;20025;-58
2021/07/24 00:51:47;;;;;;;15.95;11.00;;;512.40;2380.80;;;;;;5045936;28;20020;-58
2021/07/24 00:54:13;;;;;;;13.48;9.75;;;512.30;2380.80;;;;;;5045367;28;20021;-58
2021/07/24 00:56:40;;;;;;;15.05;10.30;;;512.30;2380.80;;;;;;5045741;28;20044;-57
2021/07/24 00:59:06;;;;;;;13.48;10.52;;;512.20;2380.80;;;;;;5047210;28;20045;-57
2021/07/24 01:01:31;;;;;;;14.52;10.55;;;512.20;2380.80;;;;;;5045462;28;20112;-58
2021/07/24 01:03:57;;;;;;;14.13;9.77;;;512.10;2380.80;;;;;;5045838;28;20109;-58
2021/07/24 01:06:23;;;;;;;12.75;9.93;;;512.20;2380.80;;;;;;5043597;28;20502;-59
2021/07/24 01:08:49;;;;;;;12.70;9.77;;;512.20;2380.80;;;;;;5038361;28;20084;-58
2021/07/24 01:11:15;;;;;;;13.98;9.82;;;512.10;2380.80;;;;;;5043770;28;20037;-59
2021/07/24 01:13:42;;;;;;;14.13;9.75;;;512.20;2380.80;;;;;;5045031;28;20542;-59
2021/07/24 01:16:09;;;;;;;13.32;9.88;;;512.20;2380.80;;;;;;5043674;28;20021;-59
2021/07/24 01:18:36;;;;;;;13.23;10.10;;;512.10;2380.80;;;;;;5042887;28;20108;-59
2021/07/24 01:21:06;;;;;;;13.60;9.60;;;512.10;2380.80;;;;;;5045386;28;20029;-59
2021/07/24 01:23:32;;;;;;;12.40;9.50;;;512.00;2380.80;;;;;;5035579;28;20022;-59
2021/07/24 01:25:58;;;;;;;15.13;10.02;;;512.00;2380.80;;;;;;5036257;28;20080;-59
2021/07/24 01:28:30;;;;;;;13.00;9.45;;;487.30;2380.80;;;;;;5036229;28;20030;-59
2021/07/24 01:30:57;;;;;;;14.77;9.77;;;487.30;2380.80;;;;;;5036037;28;20048;-58
2021/07/24 01:33:23;;;;;;;14.10;10.48;;;487.30;2380.80;;;;;;5035495;28;20433;-59
2021/07/24 01:35:50;;;;;;;13.50;10.07;;;487.20;2380.80;;;;;;5035697;28;20033;-59
2021/07/24 01:38:17;;;;;;;15.38;9.95;;;487.20;2380.80;;;;;;5036264;28;20025;-59
2021/07/24 01:40:43;;;;;;;14.00;10.10;;;487.20;2380.80;;;;;;5035846;28;20549;-59
2021/07/24 01:43:09;;;;;;;15.35;9.35;;;487.20;2380.80;;;;;;5035846;28;20057;-59
2021/07/24 01:45:36;;;;;;;14.82;9.45;;;487.20;2380.80;;;;;;5035826;28;20029;-59
2021/07/24 01:48:05;;;;;;;15.90;9.45;;;487.20;2380.80;;;;;;5035734;28;20028;-59
2021/07/24 01:53:18;;;;;;;15.77;9.73;;;487.20;2380.80;;;;;;5035983;28;20506;-59
2021/07/24 01:55:51;;;;;;;14.15;10.07;;;487.20;2380.80;;;;;;5035595;28;20121;-59
2021/07/24 01:58:22;;;;;;;14.25;9.73;;;487.20;2380.80;;;;;;5035753;28;20045;-59
2021/07/24 02:00:49;;;;;;;12.90;9.32;;;487.20;2380.80;;;;;;5035422;28;20420;-59
2021/07/24 02:03:16;;;;;;;12.35;9.60;;;487.20;2380.80;;;;;;5036076;28;20104;-59
2021/07/24 02:05:48;;;;;;;13.93;9.90;;;487.10;2380.80;;;;;;5055553;28;20052;-59
2021/07/24 02:08:22;;;;;;;13.13;9.85;;;487.00;2380.80;;;;;;5055417;28;20025;-59
2021/07/24 02:10:48;;;;;;;14.95;10.00;;;486.90;2380.80;;;;;;5055213;28;20037;-58
2021/07/24 02:13:16;;;;;;;14.77;10.55;;;486.90;2380.80;;;;;;5055120;28;20029;-59
2021/07/24 02:15:42;;;;;;;13.43;9.93;;;486.80;2380.80;;;;;;5055539;28;20379;-59
2021/07/24 02:18:08;;;;;;;14.93;10.30;;;486.70;2380.80;;;;;;5055259;28;20471;-59
2021/07/24 02:20:36;;;;;;;15.27;9.60;;;486.70;2380.80;;;;;;5055409;28;20025;-59
2021/07/24 02:23:02;;;;;;;13.27;10.13;;;486.60;2380.80;;;;;;5055023;28;20032;-59
2021/07/24 02:25:28;;;;;;;12.88;9.98;;;486.60;2380.80;;;;;;5046232;28;20025;-58
2021/07/24 02:27:54;;;;;;;13.45;9.52;;;486.60;2380.80;;;;;;5044568;28;20483;-58
2021/07/24 02:30:19;;;;;;;15.77;10.18;;;486.60;2380.80;;;;;;5045308;28;20037;-59
2021/07/24 02:32:45;;;;;;;13.95;10.30;;;486.60;2380.80;;;;;;5043737;28;20021;-59
2021/07/24 02:35:12;;;;;;;13.30;10.40;;;486.60;2380.80;;;;;;5044624;28;20375;-59
2021/07/24 02:37:38;;;;;;;13.85;10.52;;;486.50;2380.80;;;;;;5045267;28;20168;-59
2021/07/24 02:40:05;;;;;;;12.60;10.35;;;486.50;2380.80;;;;;;5043055;28;20482;-58
2021/07/24 02:42:31;;;;;;;15.77;10.63;;;486.50;2380.80;;;;;;5044395;28;20044;-59
2021/07/24 02:44:57;;;;;;;13.02;10.02;;;486.50;2380.80;;;;;;5044739;28;20029;-58
2021/07/24 02:47:22;;;;;;;14.20;10.15;;;486.60;2380.80;;;;;;5043060;28;20455;-59
2021/07/24 02:49:48;;;;;;;13.38;9.88;;;486.60;2380.80;;;;;;5044274;28;20421;-58
2021/07/24 02:52:14;;;;;;;12.57;9.63;;;486.60;2380.80;;;;;;5044229;28;20021;-59
2021/07/24 02:54:40;;;;;;;14.30;10.15;;;486.60;2380.80;;;;;;5042905;28;20025;-58
2021/07/24 02:57:05;;;;;;;14.30;10.15;;;486.60;2380.80;;;;;;5042983;28;20029;-59
2021/07/24 02:59:32;;;;;;;14.77;10.15;;;486.60;2380.80;;;;;;5043778;28;20052;-58
2021/07/24 03:01:57;;;;;;;13.13;10.35;;;486.60;2380.80;;;;;;5044619;28;20352;-59
2021/07/24 03:04:23;;;;;;;14.93;10.50;;;486.60;2380.80;;;;;;5042837;28;20056;-58
2021/07/24 03:06:50;;;;;;;16.52;10.15;;;486.50;2380.80;;;;;;5044476;28;20092;-59
2021/07/24 03:09:16;;;;;;;15.88;9.93;;;486.50;2380.80;;;;;;5044120;28;20060;-59
2021/07/24 03:11:42;;;;;;;16.15;10.38;;;486.40;2380.80;;;;;;5042412;28;20061;-59
2021/07/24 03:14:08;;;;;;;15.73;11.48;;;486.40;2380.80;;;;;;5044301;28;20037;-59
2021/07/24 03:16:33;;;;;;;15.98;11.27;;;461.70;2380.80;;;;;;5043790;28;20067;-58
2021/07/24 03:18:59;;;;;;;15.98;11.40;;;461.70;2380.80;;;;;;5042932;28;20025;-59
2021/07/24 03:21:25;;;;;;;14.70;11.02;;;461.20;2380.80;;;;;;5044503;28;20028;-58
2021/07/24 03:23:51;;;;;;;15.70;11.85;;;461.60;2380.80;;;;;;5043438;28;20029;-59
2021/07/24 03:26:20;;;;;;;17.20;11.45;;;461.60;2380.80;;;;;;5042416;28;20543;-58
2021/07/24 03:28:46;;;;;;;15.20;10.63;;;461.60;2380.80;;;;;;5042371;28;20025;-59
2021/07/24 03:31:13;;;;;;;15.63;11.68;;;461.60;2380.80;;;;;;5043450;28;20175;-59
2021/07/24 03:33:38;;;;;;;15.85;11.13;;;461.60;2380.80;;;;;;5044486;28;20025;-59
2021/07/24 03:36:04;;;;;;;16.33;11.75;;;461.60;2380.80;;;;;;5042188;28;20171;-59
2021/07/24 03:38:31;;;;;;;16.90;11.40;;;461.60;2380.80;;;;;;5043798;28;20021;-59
2021/07/24 03:40:57;;;;;;;13.75;10.93;;;461.60;2380.80;;;;;;5043690;28;20118;-59
2021/07/24 03:43:22;;;;;;;15.55;11.00;;;461.60;2380.80;;;;;;5041692;28;20068;-60
2021/07/24 03:45:48;;;;;;;14.52;10.80;;;461.60;2380.80;;;;;;5044129;28;20486;-59
2021/07/24 03:48:14;;;;;;;15.23;10.95;;;461.70;2380.80;;;;;;5043337;28;20119;-59
2021/07/24 03:50:41;;;;;;;18.02;12.00;;;461.70;2380.80;;;;;;5042016;28;20033;-59
2021/07/24 03:53:07;;;;;;;17.33;11.43;;;461.70;2380.80;;;;;;5042151;28;20032;-59
2021/07/24 03:55:36;;;;;;;19.73;11.20;;;461.70;2380.80;;;;;;5042964;28;20051;-60
2021/07/24 03:58:02;;;;;;;16.40;11.27;;;461.70;2380.80;;;;;;5043533;28;20432;-59
2021/07/24 04:00:33;;;;;;;17.63;12.18;;;486.40;2380.80;;;;;;5042002;28;20065;-58
2021/07/24 04:03:02;;;;;;;15.77;11.50;;;486.40;2380.80;;;;;;5042394;28;20033;-59
2021/07/24 04:05:29;;;;;;;17.58;12.25;;;486.40;2380.80;;;;;;5042033;28;20475;-59
2021/07/24 04:07:55;;;;;;;16.05;12.07;;;486.50;2380.80;;;;;;5042609;28;20032;-59
2021/07/24 04:10:21;;;;;;;16.75;12.40;;;486.50;2380.80;;;;;;5043905;28;20515;-59
2021/07/24 04:12:49;;;;;;;17.02;12.23;;;486.60;2380.80;;;;;;5041982;28;20025;-59
2021/07/24 04:15:15;;;;;;;16.67;11.93;;;486.60;2380.80;;;;;;5042500;28;20041;-59
2021/07/24 04:17:41;;;;;;;16.77;12.05;;;486.70;2380.80;;;;;;5043881;28;20105;-59
2021/07/24 04:20:07;;;;;;;16.00;12.43;;;486.70;2380.80;;;;;;5041962;28;20361;-59
2021/07/24 04:22:33;;;;;;;17.58;12.70;;;486.70;2380.80;;;;;;5042888;28;20017;-59
2021/07/24 04:24:59;;;;;;;17.30;11.75;;;486.80;2380.80;;;;;;5043657;28;20034;-59
2021/07/24 04:27:24;;;;;;;16.15;11.75;;;486.90;2380.80;;;;;;5041742;28;20018;-59
2021/07/24 04:29:50;;;;;;;19.00;11.70;;;487.00;2380.80;;;;;;5043236;28;20033;-59
2021/07/24 04:32:16;;;;;;;18.15;11.30;;;487.00;2380.80;;;;;;5043061;28;20021;-59
2021/07/24 04:34:41;;;;;;;14.80;10.75;;;487.10;2380.80;;;;;;5041847;28;20025;-59
2021/07/24 04:37:07;;;;;;;16.05;10.82;;;487.20;2380.80;;;;;;5043116;28;20016;-59
2021/07/24 04:39:33;;;;;;;14.27;11.20;;;487.20;2380.80;;;;;;5023909;28;20037;-59
2021/07/24 04:41:58;;;;;;;15.80;10.98;;;487.30;2380.80;;;;;;5041287;28;20079;-59
2021/07/24 04:44:24;;;;;;;13.77;10.20;;;512.00;2380.80;;;;;;5042760;28;20021;-59
2021/07/24 04:46:50;;;;;;;15.40;10.82;;;512.00;2380.80;;;;;;5041508;28;20053;-59
2021/07/24 04:49:17;;;;;;;15.43;10.25;;;512.00;2380.80;;;;;;5042071;28;20013;-58
2021/07/24 04:51:42;;;;;;;14.80;10.57;;;512.20;2380.80;;;;;;5042265;28;20103;-58
2021/07/24 04:54:09;;;;;;;14.23;10.02;;;512.30;2380.80;;;;;;5040737;28;20109;-59
2021/07/24 04:56:38;;;;;;;15.77;10.10;;;512.40;2380.80;;;;;;5041567;28;20033;-59
2021/07/24 04:59:05;;;;;;;15.70;10.02;;;512.50;2380.80;;;;;;5042341;28;20043;-59
2021/07/24 05:01:30;;;;;;;15.77;9.38;;;512.50;2380.80;;;;;;5041626;28;20088;-59
2021/07/24 05:03:57;;;;;;;12.88;9.70;;;512.70;2380.80;;;;;;5041434;28;20025;-59
2021/07/24 05:06:24;;;;;;;14.82;9.23;;;512.60;2380.80;;;;;;5043165;28;20267;-59
2021/07/24 05:08:50;;;;;;;15.18;10.20;;;512.80;2380.80;;;;;;5042083;28;20395;-59
2021/07/24 05:11:16;;;;;;;13.85;9.50;;;512.80;2380.80;;;;;;5045443;28;20029;-59
2021/07/24 05:13:41;;;;;;;14.20;10.18;;;512.90;2380.80;;;;;;5046571;28;20032;-59
2021/07/24 05:16:07;;;;;;;15.65;9.52;;;537.60;2406.40;;;;;;5045073;28;20024;-59
2021/07/24 05:18:33;;;;;;;13.95;9.77;;;537.70;2406.40;;;;;;5045931;28;20021;-59
2021/07/24 05:20:58;;;;;;;13.48;9.40;;;537.80;2406.40;;;;;;5046461;28;20025;-59
2021/07/24 05:23:24;;;;;;;12.88;9.88;;;537.90;2406.40;;;;;;5044988;28;20026;-59
2021/07/24 05:25:50;;;;;;;14.52;10.15;;;538.00;2406.40;;;;;;5045996;28;20053;-59
2021/07/24 05:28:16;;;;;;;15.93;10.18;;;538.00;2406.40;;;;;;5045989;28;20045;-59
2021/07/24 05:30:41;;;;;;;14.52;10.07;;;538.10;2406.40;;;;;;5044290;28;20368;-59
2021/07/24 05:33:07;;;;;;;13.73;10.23;;;538.30;2406.40;;;;;;5046381;28;20023;-59
2021/07/24 05:35:33;;;;;;;14.63;9.95;;;538.20;2406.40;;;;;;5045628;28;20381;-59
2021/07/24 05:37:59;;;;;;;15.27;10.02;;;538.40;2406.40;;;;;;5044766;28;20493;-59
2021/07/24 05:40:25;;;;;;;16.58;10.43;;;538.40;2406.40;;;;;;5046485;28;20025;-59
2021/07/24 05:42:50;;;;;;;13.43;10.10;;;538.50;2406.40;;;;;;5045162;28;20028;-59
2021/07/24 05:45:16;;;;;;;14.10;10.20;;;538.50;2406.40;;;;;;5044823;28;20378;-59
2021/07/24 05:47:42;;;;;;;14.88;10.55;;;563.20;2432.00;;;;;;5046483;28;20017;-59
2021/07/24 05:50:08;;;;;;;14.23;10.38;;;563.20;2432.00;;;;;;5044613;28;20018;-59
2021/07/24 05:52:34;;;;;;;16.23;10.40;;;563.30;2432.00;;;;;;5027265;28;20037;-59
2021/07/24 05:54:59;;;;;;;13.40;9.80;;;563.30;2432.00;;;;;;5046039;28;20021;-59
2021/07/24 05:57:25;;;;;;;12.68;9.95;;;563.40;2432.00;;;;;;5043999;28;20025;-59
2021/07/24 05:59:51;;;;;;;14.55;9.88;;;563.50;2432.00;;;;;;5045370;28;20059;-59
2021/07/24 06:02:17;;;;;;;12.95;9.80;;;563.60;2432.00;;;;;;5045618;28;20482;-59
2021/07/24 06:04:47;;;;;;;14.85;10.45;;;563.80;2432.00;;;;;;5044085;28;20528;-59
2021/07/24 06:07:13;;;;;;;15.63;10.23;;;563.80;2432.00;;;;;;5045159;28;20371;-59
2021/07/24 06:09:39;;;;;;;14.93;10.90;;;564.00;2432.00;;;;;;5045901;28;20024;-59
2021/07/24 06:12:07;;;;;;;13.80;9.93;;;564.00;2432.00;;;;;;5043788;28;20029;-59
2021/07/24 06:14:33;;;;;;;14.38;10.18;;;564.00;2432.00;;;;;;5044860;28;20020;-59
2021/07/24 06:16:58;;;;;;;19.27;10.55;;;564.10;2432.00;;;;;;5045682;28;20029;-59
2021/07/24 06:19:24;;;;;;;16.25;10.50;;;588.80;2432.00;;;;;;5035370;28;20482;-59
2021/07/24 06:21:50;;;;;;;19.48;10.60;;;588.80;2432.00;;;;;;5035349;28;20049;-59
2021/07/24 06:24:16;;;;;;;16.42;10.38;;;588.80;2432.00;;;;;;5035144;28;20029;-59
2021/07/24 06:26:41;;;;;;;15.80;10.65;;;588.90;2432.00;;;;;;5016948;28;20037;-59
2021/07/24 06:29:08;;;;;;;15.63;10.30;;;589.00;2432.00;;;;;;5034817;28;20028;-59
2021/07/24 06:31:35;;;;;;;14.38;9.85;;;589.10;2432.00;;;;;;5035153;28;20490;-59
2021/07/24 06:34:02;;;;;;;14.85;9.65;;;589.20;2432.00;;;;;;5034561;28;20037;-59
2021/07/24 06:36:28;;;;;;;14.43;10.38;;;589.30;2432.00;;;;;;5034873;28;20032;-59
2021/07/24 06:38:53;;;;;;;17.73;10.07;;;589.50;2432.00;;;;;;5035155;28;20104;-59
2021/07/24 06:41:19;;;;;;;17.13;10.20;;;589.60;2432.00;;;;;;5034389;28;20075;-59
2021/07/24 06:43:45;;;;;;;13.73;9.95;;;589.60;2432.00;;;;;;5034806;28;20022;-59
2021/07/24 06:46:12;;;;;;;16.83;10.80;;;589.70;2432.00;;;;;;5034608;28;20069;-60
2021/07/24 06:48:38;;;;;;;16.10;10.27;;;614.50;2432.00;;;;;;5035001;28;20048;-59
2021/07/24 06:51:07;;;;;;;15.63;10.68;;;614.60;2432.00;;;;;;5034642;28;20088;-59
2021/07/24 06:53:34;;;;;;;12.80;10.00;;;614.70;2432.00;;;;;;5034698;28;20128;-59
2021/07/24 06:56:00;;;;;;;12.00;9.18;;;614.80;2432.00;;;;;;5042465;28;20041;-59
2021/07/24 06:58:25;;;;;;;12.60;9.57;;;615.00;2406.40;;;;;;5042106;28;20048;-59
2021/07/24 07:00:51;;;;;;;14.35;9.10;;;615.10;2380.80;;;;;;5034363;28;20048;-59
2021/07/24 07:03:17;;;;;;;15.00;10.00;;;615.10;2432.00;;;;;;5034337;28;20076;-60
2021/07/24 07:05:43;;;;;;;16.08;10.30;;;615.20;2380.80;;;;;;5034063;28;20033;-59
2021/07/24 07:08:08;;;;;;;17.02;9.70;;;615.20;2406.40;;;;;;5034535;28;20030;-59
2021/07/24 07:10:34;;;;;;;15.68;10.10;;;640.00;2406.40;;;;;;5034249;28;20037;-59
2021/07/24 07:12:59;;;;;;;13.82;10.18;;;640.10;2304.00;;;;;;5034133;28;20540;-59
2021/07/24 07:15:27;;;;;;;15.52;9.77;;;640.30;2304.00;;;;;;5034312;28;20025;-59
2021/07/24 07:17:53;;;;;;;11.05;9.00;;;640.40;2329.60;;;;;;5019873;28;20041;-59
2021/07/24 07:20:19;;;;;;;12.85;8.80;;;640.60;2304.00;;;;;;5032207;28;20032;-59
2021/07/24 07:22:45;;;;;;;14.40;9.20;;;640.80;2304.00;;;;;;5032389;28;20042;-58
2021/07/24 07:25:11;;;;;;;12.55;9.27;;;640.90;2278.40;;;;;;5014530;28;20087;-59
2021/07/24 07:27:42;;;;;;;15.95;9.07;;;665.60;2252.80;;;;;;5031188;28;20086;-59
2021/07/24 07:30:09;;;;;;;16.33;9.32;;;665.80;2252.80;;;;;;5031959;28;20422;-59
2021/07/24 07:32:34;;;;;;;12.05;8.35;;;665.90;2227.20;;;;;;5031439;28;20248;-59
2021/07/24 07:35:00;;;;;;;12.60;8.48;;;666.20;2201.60;;;;;;5032319;28;20088;-59
2021/07/24 07:37:26;;;;;;;13.38;8.05;;;666.20;2176.00;;;;;;5031731;28;20117;-59
2021/07/24 07:39:51;;;;;;;11.90;7.63;;;666.40;2176.00;;;;;;5032472;28;20471;-60
2021/07/24 07:42:17;;;;;;;9.85;7.95;;;666.40;2124.80;;;;;;5031454;28;20116;-60
2021/07/24 07:44:43;;;;;;;10.75;7.43;;;666.50;2176.00;;;;;;5031326;28;20033;-60
2021/07/24 07:47:09;;;;;;;11.05;8.00;;;666.40;2150.40;;;;;;5037074;28;20043;-59
2021/07/24 07:49:35;;;;;;;10.80;7.72;;;691.20;2201.60;;;;;;5051320;28;20048;-60
2021/07/24 07:52:00;;;;;;;8.45;7.30;;;691.30;2176.00;;;;;;5033648;28;20068;-59
2021/07/24 07:54:30;;;;;;;10.52;7.53;;;691.50;2073.60;;;;;;5051299;28;20024;-60
2021/07/24 07:56:57;;;;;;;11.18;7.70;;;691.60;2099.20;;;;;;5052019;28;20033;-60
2021/07/24 07:59:23;;;;;;;12.77;7.75;;;691.70;2022.40;;;;;;5050770;28;20041;-60
2021/07/24 08:01:51;;;;;;;8.90;7.22;;;691.90;2022.40;;;;;;5048172;28;20381;-59
2021/07/24 08:04:16;;;;;;;9.23;7.57;;;691.70;2022.40;;;;;;5040811;28;20036;-59
2021/07/24 08:06:42;;;;;;;11.35;7.22;;;691.80;2048.00;;;;;;5034613;28;20025;-59
2021/07/24 08:09:08;;;;;;;13.32;7.28;;;691.90;2048.00;;;;;;5032083;28;20032;-59
2021/07/24 08:11:34;;;;;;;10.75;7.78;;;692.10;2048.00;;;;;;5031302;28;20043;-59
2021/07/24 08:13:59;;;;;;;9.85;7.53;;;692.00;2022.40;;;;;;5031286;28;20064;-59
2021/07/24 08:16:25;;;;;;;9.77;7.90;;;692.10;2022.40;;;;;;5031261;28;20030;-60
2021/07/24 08:18:51;;;;;;;11.43;7.38;;;717.00;2073.60;;;;;;5050849;28;20040;-60
2021/07/24 08:21:16;;;;;;;26.92;11.73;;;717.00;2073.60;;;;;;5051236;28;20370;-60
2021/07/24 08:23:42;;;;;;;16.20;7.65;;;717.30;2048.00;;;;;;5051776;28;20033;-59
2021/07/24 08:26:08;;;;;;;17.15;8.90;;;717.50;2048.00;;;;;;5051588;28;20029;-59
2021/07/24 08:28:34;;;;;;;11.45;7.50;;;717.60;2048.00;;;;;;5050387;28;20033;-59
2021/07/24 08:31:00;;;;;;;11.13;7.00;;;717.60;1868.80;;;;;;5051837;28;20040;-60
2021/07/24 08:33:26;;;;;;;12.98;6.70;;;717.60;1945.60;;;;;;5050721;28;20100;-60
2021/07/24 08:35:54;;;;;;;9.55;6.63;;;717.70;1920.00;;;;;;5051540;28;20455;-60
2021/07/24 08:38:20;;;;;;;10.02;6.03;;;742.50;1920.00;;;;;;5031616;28;20043;-59
2021/07/24 08:40:49;;;;;;;8.27;6.00;;;742.50;1843.20;;;;;;5033890;28;20084;-60
2021/07/24 08:43:15;;;;;;;10.02;7.20;;;742.60;1740.80;;;;;;5051424;28;20033;-60
2021/07/24 08:45:42;;;;;;;8.27;5.97;;;742.50;1740.80;;;;;;5055484;28;20033;-60
2021/07/24 08:48:09;;;;;;;11.35;6.70;;;742.60;1740.80;;;;;;5041800;28;20037;-60
2021/07/24 08:50:35;;;;;;;9.55;5.97;;;742.60;1740.80;;;;;;5034676;28;20673;-60
2021/07/24 08:53:05;;;;;;;7.88;6.43;;;742.70;1792.00;;;;;;5035318;28;20040;-60
2021/07/24 08:55:32;;;;;;;12.38;6.53;;;742.80;1766.40;;;;;;5034588;28;20459;-60
2021/07/24 08:57:59;;;;;;;8.98;6.75;;;742.90;1689.60;;;;;;5034697;28;20037;-60
2021/07/24 09:00:27;;;;;;;8.88;6.50;;;742.90;1638.40;;;;;;5034554;28;20083;-60
2021/07/24 09:02:58;;;;;;;8.98;6.43;;;742.90;1561.60;;;;;;5035126;28;20045;-61
2021/07/24 09:05:26;;;;;;;9.52;6.32;;;742.90;1561.60;;;;;;5034700;28;20411;-60
2021/07/24 09:07:52;;;;;;;7.70;6.13;;;743.10;1587.20;;;;;;5035122;28;20479;-60
2021/07/24 09:10:19;;;;;;;8.52;5.72;;;743.20;1561.60;;;;;;5034350;28;20045;-60
2021/07/24 09:12:47;;;;;;;9.60;6.57;;;743.20;1536.00;;;;;;5034475;28;20033;-60
2021/07/24 09:15:16;;;;;;;8.85;6.65;;;768.00;1510.40;;;;;;5034594;28;20052;-60
2021/07/24 09:17:42;;;;;;;8.40;6.40;;;768.00;1510.40;;;;;;5044364;28;20502;-60
2021/07/24 09:20:09;;;;;;;8.23;5.45;;;768.30;1459.20;;;;;;5054630;28;20467;-59
2021/07/24 09:22:36;;;;;;;9.60;5.75;;;768.10;1459.20;;;;;;5054033;28;20498;-60
2021/07/24 09:25:12;;;;;;;7.10;6.18;;;768.30;1433.60;;;;;;5054210;28;20021;-59
2021/07/24 09:27:43;;;;;;;10.25;5.65;;;768.50;1484.80;;;;;;5053178;28;20033;-60
2021/07/24 09:30:24;;;;;;;11.00;6.13;;;768.70;1459.20;;;;;;5054274;28;20052;-60
2021/07/24 09:33:03;;;;;;;8.05;6.00;;;768.90;1484.80;;;;;;5054596;28;20040;-59
2021/07/24 09:35:52;;;;;;;6.57;4.82;;;793.70;1331.20;;;;;;5053911;28;20021;-59
2021/07/24 09:38:28;;;;;;;8.30;5.20;;;794.10;1305.60;;;;;;5053571;28;20048;-60
2021/07/24 09:40:56;;;;;;;7.05;5.28;;;794.10;1408.00;;;;;;5054468;28;20060;-60
2021/07/24 09:43:48;;;;;;;9.60;6.47;;;794.40;1433.60;;;;;;5052827;28;20041;-59
2021/07/24 09:46:21;;;;;;;7.47;5.32;;;794.30;1382.40;;;;;;5049293;28;20037;-61
2021/07/24 09:48:48;;;;;;;10.43;6.43;;;819.20;1356.80;;;;;;5035483;28;20045;-60
2021/07/24 09:51:16;;;;;;;5.75;4.90;;;794.50;1280.00;;;;;;5033576;28;20832;-60
2021/07/24 09:53:43;;;;;;;6.63;5.40;;;794.40;1280.00;;;;;;5034197;28;20025;-60
2021/07/24 09:56:19;;;;;;;8.13;5.10;;;794.40;1280.00;;;;;;5033653;28;20116;-60
2021/07/24 09:58:46;;;;;;;7.00;5.40;;;819.20;1254.40;;;;;;5033406;28;20098;-60
2021/07/24 10:01:18;;;;;;;9.13;5.38;;;794.40;1228.80;;;;;;5033939;28;20585;-60
2021/07/24 10:03:48;;;;;;;7.70;4.90;;;794.30;1228.80;;;;;;5033780;28;20038;-59
2021/07/24 10:06:15;;;;;;;8.50;5.40;;;794.40;1254.40;;;;;;5033768;28;20069;-60
2021/07/24 10:08:43;;;;;;;7.88;5.88;;;819.50;1254.40;;;;;;5033650;28;20033;-60
2021/07/24 10:11:10;;;;;;;7.63;6.82;;;819.70;1203.20;;;;;;5033887;28;20522;-60
2021/07/24 10:13:38;;;;;;;10.15;5.75;;;819.30;1228.80;;;;;;5032364;28;20167;-60
2021/07/24 10:16:04;;;;;;;7.65;5.65;;;819.50;1203.20;;;;;;5033308;28;20026;-60
2021/07/24 10:18:30;;;;;;;7.47;5.20;;;819.50;1228.80;;;;;;5048814;28;20124;-60
2021/07/24 10:20:59;;;;;;;6.80;5.20;;;819.40;1203.20;;;;;;5053263;28;20028;-60
2021/07/24 10:23:25;;;;;;;7.85;5.38;;;819.70;1177.60;;;;;;5052895;28;20032;-60
2021/07/24 10:25:50;;;;;;;9.13;5.85;;;819.50;1100.80;;;;;;5053461;28;20029;-60
2021/07/24 10:28:30;;;;;;;11.60;7.72;;;819.40;1152.00;;;;;;5052181;28;20065;-60
2021/07/24 10:31:04;;;;;;;6.93;5.00;;;819.80;1126.40;;;;;;5053282;28;20494;-60
2021/07/24 10:33:31;;;;;;;10.77;5.78;;;819.70;1126.40;;;;;;5052639;28;20041;-60
2021/07/24 10:36:11;;;;;;;8.27;5.40;;;819.70;1126.40;;;;;;5026023;28;20057;-60
2021/07/24 10:38:38;;;;;;;8.73;5.72;;;819.90;1126.40;;;;;;5042043;28;20075;-60
2021/07/24 10:41:22;;;;;;;6.70;5.20;;;819.70;1152.00;;;;;;5042321;28;20033;-60
2021/07/24 10:44:00;;;;;;;6.50;5.15;;;819.70;1152.00;;;;;;5043610;28;20036;-60
2021/07/24 10:46:44;;;;;;;7.40;5.15;;;819.90;1152.00;;;;;;5042833;28;20039;-60
2021/07/24 10:49:22;;;;;;;6.32;5.55;;;844.80;1177.60;;;;;;5042336;28;20028;-60
2021/07/24 10:51:57;;;;;;;6.55;5.57;;;844.80;1126.40;;;;;;5038142;28;20036;-61
2021/07/24 10:54:24;;;;;;;6.65;5.30;;;820.00;1126.40;;;;;;5042752;28;20162;-59
2021/07/24 10:56:50;;;;;;;10.02;5.72;;;820.00;1126.40;;;;;;5041513;28;20344;-62
2021/07/24 10:59:26;;;;;;;9.65;5.45;;;820.10;1126.40;;;;;;5041212;28;20486;-59
2021/07/24 11:01:54;;;;;;;9.88;5.38;;;820.10;1100.80;;;;;;5042173;28;20026;-60
2021/07/24 11:04:35;;;;;;;8.95;7.35;;;820.00;1075.20;;;;;;5040580;28;20102;-60
2021/07/24 11:07:13;;;;;;;8.65;7.28;;;820.10;1100.80;;;;;;5050580;28;20500;-59
2021/07/24 11:09:43;;;;;;;10.70;5.60;;;820.00;1075.20;;;;;;5052309;28;20107;-61
2021/07/24 11:12:13;;;;;;;6.68;5.00;;;820.00;1049.60;;;;;;5052070;28;20037;-61
2021/07/24 11:14:38;;;;;;;9.75;6.50;;;820.00;1100.80;;;;;;5052022;28;20025;-60
2021/07/24 11:17:07;;;;;;;7.63;6.00;;;820.00;1126.40;;;;;;5047838;28;20384;-60
2021/07/24 11:19:41;;;;;;;10.20;6.82;;;820.00;1152.00;;;;;;5031718;28;20078;-58
2021/07/24 11:22:12;;;;;;;5.60;5.00;;;844.80;1126.40;;;;;;5032464;28;20037;-59
2021/07/24 11:24:40;;;;;;;8.45;6.82;;;844.80;1075.20;;;;;;5031941;28;20025;-58
2021/07/24 11:27:06;;;;;;;7.10;5.85;;;820.10;1075.20;;;;;;5031767;28;20179;-59
2021/07/24 11:29:32;;;;;;;9.07;6.97;;;820.10;1075.20;;;;;;5031808;28;20124;-59
2021/07/24 11:32:02;;;;;;;7.53;6.22;;;820.00;1049.60;;;;;;5032438;28;20045;-58
2021/07/24 11:34:32;;;;;;;6.45;5.55;;;820.10;1049.60;;;;;;5031916;28;20029;-60
2021/07/24 11:37:00;;;;;;;10.00;8.50;;;844.80;1075.20;;;;;;5043704;28;20471;-58
2021/07/24 11:39:30;;;;;;;13.48;9.27;;;845.00;1100.80;;;;;;5050819;28;20047;-58
2021/07/24 11:41:56;;;;;;;8.35;6.07;;;820.00;1049.60;;;;;;5051071;28;20044;-59
2021/07/24 11:44:29;;;;;;;9.27;5.80;;;820.00;1049.60;;;;;;5050888;28;20044;-59
2021/07/24 11:47:02;;;;;;;7.22;5.43;;;844.80;1100.80;;;;;;5047963;28;20042;-59
2021/07/24 11:49:29;;;;;;;7.10;5.45;;;819.90;1075.20;;;;;;5031132;28;20025;-57
2021/07/24 11:51:55;;;;;;;9.02;5.82;;;820.00;1075.20;;;;;;5031707;28;20041;-58
2021/07/24 11:54:31;;;;;;;9.27;7.07;;;820.10;1075.20;;;;;;5031021;28;20022;-58
2021/07/24 11:56:57;;;;;;;9.70;7.35;;;845.00;1075.20;;;;;;5031293;28;20043;-59
2021/07/24 11:59:23;;;;;;;7.60;6.15;;;844.80;1049.60;;;;;;5038247;28;20112;-59
2021/07/24 12:01:49;;;;;;;8.98;5.00;;;820.10;1049.60;;;;;;5050713;28;20025;-59
2021/07/24 12:04:16;;;;;;;9.48;7.00;;;844.80;1075.20;;;;;;5050318;28;20024;-59
2021/07/24 12:07:00;;;;;;;7.93;7.07;;;844.80;1024.00;;;;;;5050675;28;20040;-59
2021/07/24 12:09:27;;;;;;;7.47;5.60;;;845.00;1049.60;;;;;;5050372;28;20538;-58